map of NDB home
NDB - Airport
Location
City:  Nouadhibou, Mauritania
Near (Alt.):Port-Étienne
Name:Nouadhibou International Airport
ICAO:GQPP
IATA:NDB

Details
Type:Airport (Aerodrome, Airfield)
Use:Public/Civil, International (customs port of entry)
Latitude:20°55'42"N (20.928333)
Longitude:17°01'52"W (-17.031110)
Elevation:10 ft (3 m)
Variation:5.94°W (WMM2015 magnetic declination)
0.11° annual change
Runways:1
Longest:7956 × 148 ft (2425 × 45 m), paved

Time
Time Zone:UTC+0
Local Time:

Weather
METAR:GQPP 181800Z 29009KT 8000 BKN005 21/18 Q1014 NOSIG
TAF:GQPP 181700Z 1818/1918 27005KT 7000 BKN006
BECMG 1818/1821 33012KT
TEMPO 1905/1908 2000 BR
BECMG 1908/1910 NSC

Related Locations
Nearby:
Farthest:KOC: 12358 mi / 19889 km
Koumac, NC

Find:

   beyond  
but within

Other Information
Maps:
NOTAMs:
Links:
Sources:

  
  • flag of Mauritania
  

Sectional Chart

Flight Planning
at skyvector.com

Satellite Image

Google Maps Satellite view

 

Copyright © 2004-2018 Karl L. Swartz. All rights reserved.
The Great Circle Mapper name and logo are trademarks of the Great Circle Mapper.
All other trademarks mentioned herein belong to their respective owners.
Please see credits for attibutions and further copyright information.

  Follow gcmap on Facebook Follow gcmap on Twitter Follow gcmap on Google+ GCmap on LinkedIn

hCard Microformat

Geo Microformat